Rancho Alegre d'Oeste, Brazil
Current Conditions -  °F | °C
As of 12:00 PM on Wednesday 22 Oct 2014 (Local Time) from SBCA Reporting Station
Clear Clear  
Wind Chill: 73°   Ceiling: Unl
Heat Index: 73°   Visibility: 6mi
Dew Point: 48°   Wind: 23mph
Humidity: 41%   Direction: 80°E
Pressure: 30.15"   Gusts: NA
Location:  24.31°S, 52.95°W
Report Text: SBCA 221400Z 08020KT CAVOK 23/09 Q1021
Loading
Personal Weather Stations






























Interactive Weather Map
Tropical Storm Tracking
New forecast layout! Learn more

10-Day Weather Forecast

Advertisements
Track Severe Weather on mobile